Time;durP1;ratioP1;P1;durP2;ratioP2;P2;SDS_P1;SDS_P2;PMS_P1;PMS_P2;Temp;Humidity;BMP_temperature;BMP_pressure;BME280_temperature;BME280_humidity;BME280_pressure;Samples;Min_cycle;Max_cycle;Signal;HPM_P1;HPM_P2
2023/05/17 00:01:44;;;;;;;4.45;4.25;;;;;;;7.68;100.00;101824.88;6140070;23;20091;-67
2023/05/17 00:04:13;;;;;;;4.40;4.10;;;;;;;7.13;100.00;101760.75;6168032;23;20021;-69
2023/05/17 00:06:40;;;;;;;5.50;5.10;;;;;;;7.61;100.00;101827.66;6139796;23;20040;-69
2023/05/17 00:09:06;;;;;;;5.28;4.38;;;;;;;7.63;100.00;101823.25;6172103;23;20031;-69
2023/05/17 00:11:33;;;;;;;4.18;3.97;;;;;;;7.32;100.00;101780.38;6142089;23;20020;-66
2023/05/17 00:13:59;;;;;;;4.72;4.38;;;;;;;7.19;100.00;101771.91;6172807;23;20399;-69
2023/05/17 00:16:26;;;;;;;4.00;3.80;;;;;;;7.32;100.00;101782.13;6146597;23;20029;-69
2023/05/17 00:18:53;;;;;;;4.13;3.92;;;;;;;7.66;100.00;101820.56;6167482;23;20020;-69
2023/05/17 00:21:19;;;;;;;4.03;3.83;;;;;;;7.31;100.00;101770.81;6143252;23;20062;-69
2023/05/17 00:23:46;;;;;;;4.03;3.83;;;;;;;7.66;100.00;101821.44;6141947;23;20015;-68
2023/05/17 00:26:12;;;;;;;4.07;3.88;;;;;;;7.61;100.00;101815.44;6144808;23;20056;-69
2023/05/17 00:28:39;;;;;;;4.78;4.18;;;;;;;7.65;100.00;101829.31;6143395;23;20050;-69
2023/05/17 00:31:05;;;;;;;4.78;4.32;;;;;;;7.57;100.00;101809.41;6143056;23;20079;-69
2023/05/17 00:33:32;;;;;;;4.15;3.90;;;;;;;7.21;100.00;101765.81;6172422;23;20455;-69
2023/05/17 00:35:58;;;;;;;4.63;4.32;;;;;;;7.28;100.00;101793.53;6138567;23;20543;-69
2023/05/17 00:38:25;;;;;;;4.55;4.30;;;;;;;7.26;100.00;101788.34;6170302;23;20111;-69
2023/05/17 00:40:52;;;;;;;4.13;3.92;;;;;;;6.42;100.00;101665.66;6143400;23;20025;-69
2023/05/17 00:43:19;;;;;;;4.80;4.40;;;;;;;7.28;100.00;101817.88;6171418;23;20035;-69
2023/05/17 00:45:48;;;;;;;4.65;4.35;;;;;;;7.24;100.00;101818.00;6143552;23;20100;-69
2023/05/17 00:48:15;;;;;;;4.22;3.92;;;;;;;7.18;100.00;101811.97;6164453;23;20028;-68
2023/05/17 00:50:42;;;;;;;4.53;4.32;;;;;;;6.74;100.00;101745.00;6141737;23;20479;-68
2023/05/17 00:53:08;;;;;;;4.05;3.85;;;;;;;7.12;100.00;101814.72;6174842;23;20036;-69
2023/05/17 00:55:35;;;;;;;5.00;4.55;;;;;;;7.08;100.00;101818.28;6144523;23;20028;-69
2023/05/17 00:58:04;;;;;;;4.07;3.88;;;;;;;6.65;100.00;101751.25;6143565;23;20482;-68
2023/05/17 01:00:32;;;;;;;4.30;4.10;;;;;;;7.03;100.00;101820.09;6140848;23;20028;-69
2023/05/17 01:02:58;;;;;;;4.15;3.95;;;;;;;6.71;100.00;101763.31;6167505;23;22866;-69
2023/05/17 01:05:27;;;;;;;4.10;3.90;;;;;;;6.96;100.00;101821.13;6145411;23;20024;-69
2023/05/17 01:07:54;;;;;;;4.90;4.60;;;;;;;6.81;100.00;101813.59;6165137;23;20092;-68
2023/05/17 01:10:27;;;;;;;4.72;4.43;;;;;;;6.62;100.00;101769.59;6139369;23;20033;-66
2023/05/17 01:13:04;;;;;;;4.03;3.83;;;;;;;6.55;100.00;101776.63;6166712;23;20017;-69
2023/05/17 01:15:33;;;;;;;4.53;4.22;;;;;;;6.81;100.00;101824.88;6141831;23;20636;-69
2023/05/17 01:18:31;;;;;;;4.60;4.40;;;;;;;6.78;100.00;101830.16;6167894;23;20426;-69
2023/05/17 01:21:00;;;;;;;4.72;4.43;;;;;;;6.70;100.00;101832.06;6137117;23;20035;-69
2023/05/17 01:23:42;;;;;;;10.52;4.30;;;;;;;6.68;100.00;101831.22;6170870;23;20072;-69
2023/05/17 01:26:15;;;;;;;4.60;4.37;;;;;;;6.65;100.00;101834.72;6141134;23;20027;-70
2023/05/17 01:28:45;;;;;;;4.93;4.53;;;;;;;6.71;100.00;101833.75;6167657;23;20033;-69
2023/05/17 01:31:12;;;;;;;4.10;3.90;;;;;;;6.31;100.00;101783.16;6140246;23;20021;-69
2023/05/17 01:33:39;;;;;;;4.55;4.30;;;;;;;6.66;100.00;101839.06;6168572;23;20021;-69
2023/05/17 01:36:06;;;;;;;4.85;4.63;;;;;;;6.20;100.00;101772.06;6139965;23;20391;-69
2023/05/17 01:38:32;;;;;;;4.47;4.28;;;;;;;6.57;100.00;101847.91;6171449;23;20028;-69
2023/05/17 01:41:43;;;;;;;4.20;4.00;;;;;;;6.51;100.00;101839.31;6137546;23;20101;-69
2023/05/17 01:44:36;;;;;;;6.40;4.82;;;;;;;6.49;100.00;101843.69;6029834;23;20085;-69
2023/05/17 01:47:15;;;;;;;4.88;4.57;;;;;;;6.31;100.00;101826.59;6008689;23;20505;-69
2023/05/17 01:49:47;;;;;;;4.78;4.47;;;;;;;6.42;100.00;101844.69;6111280;23;20035;-69
2023/05/17 01:52:54;;;;;;;7.25;4.63;;;;;;;6.36;100.00;101851.72;6172103;23;20090;-69
2023/05/17 01:55:23;;;;;;;8.07;4.40;;;;;;;6.42;100.00;101853.38;6024877;23;20105;-69
2023/05/17 01:57:54;;;;;;;5.65;5.22;;;;;;;6.43;100.00;101855.09;6050192;23;20030;-69
2023/05/17 02:00:25;;;;;;;4.80;4.40;;;;;;;6.36;100.00;101854.34;6088211;23;20575;-68
2023/05/17 02:02:52;;;;;;;5.60;4.90;;;;;;;6.32;100.00;101854.41;6167123;23;20017;-69
2023/05/17 02:05:19;;;;;;;8.35;4.78;;;;;;;6.12;100.00;101836.47;6139075;23;20033;-66
2023/05/17 02:07:45;;;;;;;4.68;4.38;;;;;;;6.14;100.00;101832.97;6166887;23;20025;-68
2023/05/17 02:10:12;;;;;;;4.30;4.10;;;;;;;5.88;100.00;101802.06;6143471;23;20183;-67
2023/05/17 02:12:38;;;;;;;5.03;4.72;;;;;;;6.15;100.00;101854.66;6154334;23;20048;-67
2023/05/17 02:15:07;;;;;;;4.68;4.38;;;;;;;5.14;100.00;101680.72;6122710;23;20051;-67
2023/05/17 02:17:33;;;;;;;10.02;5.47;;;;;;;6.25;100.00;101853.63;6154978;23;20027;-66
2023/05/17 02:20:00;;;;;;;4.82;4.53;;;;;;;5.74;100.00;101781.41;6124524;23;20029;-66
2023/05/17 02:22:26;;;;;;;5.00;4.60;;;;;;;6.21;100.00;101883.25;6150098;23;20032;-67
2023/05/17 02:24:52;;;;;;;4.18;3.97;;;;;;;5.76;100.00;101786.59;6116490;23;20035;-67
2023/05/17 02:27:19;;;;;;;6.93;4.93;;;;;;;5.92;100.00;101827.19;6155568;23;20106;-67
2023/05/17 02:29:45;;;;;;;5.82;5.32;;;;;;;6.22;100.00;101871.94;6117315;23;20025;-67
2023/05/17 02:32:12;;;;;;;9.70;4.10;;;;;;;6.15;100.00;101873.78;6152215;23;20096;-67
2023/05/17 02:34:38;;;;;;;5.00;4.50;;;;;;;6.07;100.00;101872.16;6117235;23;20029;-67
2023/05/17 02:37:05;;;;;;;4.55;4.15;;;;;;;6.01;100.00;101877.47;6158085;23;20029;-67
2023/05/17 02:39:32;;;;;;;3.85;3.65;;;;;;;5.93;100.00;101867.09;6126858;23;20513;-67
2023/05/17 02:41:59;;;;;;;4.70;4.40;;;;;;;5.85;100.00;101882.00;6153107;23;20028;-67
2023/05/17 02:44:25;;;;;;;4.90;4.60;;;;;;;5.25;100.00;101783.81;6118859;23;20081;-67
2023/05/17 02:46:52;;;;;;;4.63;4.32;;;;;;;5.65;100.00;101862.25;6150488;23;20388;-67
2023/05/17 02:49:18;;;;;;;4.55;4.13;;;;;;;5.19;100.00;101808.16;6117033;23;20020;-67
2023/05/17 02:51:45;;;;;;;4.38;4.15;;;;;;;5.23;100.00;101809.84;6152790;23;20041;-67
2023/05/17 02:54:11;;;;;;;4.50;4.15;;;;;;;5.08;100.00;101797.91;6118936;23;20015;-67
2023/05/17 02:56:37;;;;;;;4.10;3.90;;;;;;;5.50;100.00;101875.50;6146519;23;20069;-66
2023/05/17 02:59:04;;;;;;;4.82;4.53;;;;;;;4.81;100.00;101767.84;6119339;23;20021;-67
2023/05/17 03:01:30;;;;;;;5.10;4.70;;;;;;;5.45;100.00;101878.13;6116148;23;20080;-66
2023/05/17 03:03:57;;;;;;;4.75;4.43;;;;;;;5.45;100.00;101882.50;6123098;23;20026;-67
2023/05/17 03:06:23;;;;;;;4.82;4.38;;;;;;;5.42;100.00;101883.41;6121103;23;20025;-67
2023/05/17 03:08:50;;;;;;;4.47;4.28;;;;;;;5.39;100.00;101883.41;6122051;23;20020;-67
2023/05/17 03:11:16;;;;;;;4.32;4.13;;;;;;;4.80;100.00;101799.94;6155804;23;20020;-67
2023/05/17 03:13:45;;;;;;;4.85;4.55;;;;;;;5.20;100.00;101861.97;6121074;23;20701;-67
2023/05/17 03:16:11;;;;;;;4.15;3.92;;;;;;;5.16;100.00;101868.94;6146762;23;20032;-67
2023/05/17 03:18:38;;;;;;;4.80;4.50;;;;;;;5.14;100.00;101865.47;6100245;23;20029;-67
2023/05/17 03:21:04;;;;;;;5.65;4.97;;;;;;;5.30;100.00;101900.00;6146697;23;20015;-67
2023/05/17 03:23:31;;;;;;;4.30;4.10;;;;;;;4.57;100.00;101788.06;6114299;23;20083;-67
2023/05/17 03:25:57;;;;;;;4.70;4.40;;;;;;;5.06;100.00;101862.09;6146701;23;20032;-67
2023/05/17 03:28:24;;;;;;;4.40;4.00;;;;;;;4.94;100.00;101851.81;6126175;23;20081;-67
2023/05/17 03:30:50;;;;;;;4.50;4.20;;;;;;;5.26;100.00;101907.88;6148933;23;20041;-67
2023/05/17 03:33:18;;;;;;;4.53;4.22;;;;;;;4.88;100.00;101867.50;6088904;23;20037;-67
2023/05/17 03:35:47;;;;;;;4.47;4.18;;;;;;;5.26;100.00;101923.50;6150353;23;20725;-67
2023/05/17 03:38:14;;;;;;;5.25;4.95;;;;;;;5.32;100.00;101918.22;6112893;23;20026;-67
2023/05/17 03:40:40;;;;;;;9.95;5.07;;;;;;;4.97;100.00;101867.38;6143801;23;21417;-67
2023/05/17 03:43:07;;;;;;;5.65;4.72;;;;;;;5.31;100.00;101927.78;6122643;23;20561;-66
2023/05/17 03:45:33;;;;;;;4.20;4.00;;;;;;;4.85;100.00;101858.00;6146375;23;20041;-67
2023/05/17 03:48:00;;;;;;;4.88;4.47;;;;;;;4.74;100.00;101850.28;6117683;23;20019;-67
2023/05/17 03:50:26;;;;;;;6.75;4.43;;;;;;;5.33;100.00;101932.94;6121471;23;20049;-67
2023/05/17 03:52:53;;;;;;;5.18;4.88;;;;;;;5.33;100.00;101936.44;6094696;23;20025;-67
2023/05/17 03:55:19;;;;;;;4.10;3.90;;;;;;;5.37;100.00;101943.34;6150780;23;20024;-69
2023/05/17 03:57:46;;;;;;;4.43;4.20;;;;;;;5.42;100.00;101943.28;6112858;23;21399;-69
2023/05/17 04:00:13;;;;;;;4.05;3.85;;;;;;;5.43;100.00;101939.78;6129659;23;20031;-69
2023/05/17 04:02:39;;;;;;;4.97;4.55;;;;;;;5.00;100.00;101865.63;6117670;23;20107;-69
2023/05/17 04:05:06;;;;;;;4.75;4.32;;;;;;;4.23;100.00;101732.94;6153408;23;20397;-69
2023/05/17 04:07:33;;;;;;;4.18;3.97;;;;;;;5.48;100.00;101918.91;6120245;23;20526;-69
2023/05/17 04:10:01;;;;;;;4.82;4.53;;;;;;;5.22;100.00;101862.81;6142788;23;20044;-69
2023/05/17 04:12:28;;;;;;;5.35;5.00;;;;;;;5.91;100.00;101949.66;6125297;23;20025;-69
2023/05/17 04:14:54;;;;;;;4.95;4.70;;;;;;;5.46;100.00;101866.00;6153697;23;20295;-69
2023/05/17 04:17:21;;;;;;;5.13;4.72;;;;;;;5.77;100.00;101897.72;6123673;23;20084;-69
2023/05/17 04:19:47;;;;;;;5.45;4.95;;;;;;;6.26;100.00;101970.06;6150458;23;20033;-69
2023/05/17 04:22:14;;;;;;;6.40;4.55;;;;;;;5.79;100.00;101877.72;6125590;23;20021;-69
2023/05/17 04:24:40;;;;;;;5.28;4.90;;;;;;;6.33;100.00;101974.28;6157238;23;20048;-69
2023/05/17 04:27:07;;;;;;;5.50;4.82;;;;;;;6.20;100.00;101936.28;6125649;23;20697;-69
2023/05/17 04:29:36;;;;;;;13.27;5.60;;;;;;;6.39;100.00;101971.63;6129636;23;20942;-69
2023/05/17 04:32:03;;;;;;;5.15;4.80;;;;;;;6.42;100.00;101967.25;6122123;23;20021;-69
2023/05/17 04:34:30;;;;;;;7.00;5.18;;;;;;;6.30;100.00;101922.22;6158159;23;20468;-69
2023/05/17 04:36:57;;;;;;;9.15;5.60;;;;;;;5.97;100.00;101843.66;6123762;23;20104;-69
2023/05/17 04:39:23;;;;;;;5.20;4.75;;;;;;;6.37;100.00;101883.88;6149739;23;20017;-69
2023/05/17 04:41:50;;;;;;;5.25;4.90;;;;;;;7.04;100.00;101973.22;6121151;23;20785;-69
2023/05/17 04:44:17;;;;;;;5.63;5.32;;;;;;;7.04;100.00;101973.22;6155237;23;20050;-70
2023/05/17 04:46:44;;;;;;;6.70;6.15;;;;;;;7.11;100.00;101976.59;6093312;23;20041;-69
2023/05/17 04:49:11;;;;;;;8.10;5.35;;;;;;;6.70;100.00;101923.34;6156092;23;20088;-69
2023/05/17 04:51:37;;;;;;;5.60;5.22;;;;;;;7.18;100.00;101967.78;6115307;23;20169;-69
2023/05/17 04:54:07;;;;;;;6.90;5.63;;;;;;;7.43;100.00;101985.59;6147279;23;20028;-69
2023/05/17 04:56:35;;;;;;;7.60;6.90;;;;;;;7.31;100.00;101931.84;6123911;23;20018;-69
2023/05/17 04:59:02;;;;;;;6.93;5.72;;;;;;;7.27;100.00;101945.84;6122349;23;20036;-70
2023/05/17 05:01:29;;;;;;;7.22;5.55;;;;;;;7.69;100.00;101993.81;6152718;23;20039;-69
2023/05/17 05:03:57;;;;;;;5.90;5.40;;;;;;;7.43;100.00;101962.09;6124719;23;20025;-69
2023/05/17 05:06:23;;;;;;;6.07;5.03;;;;;;;6.98;100.00;101915.91;6155869;23;20040;-69
2023/05/17 05:08:50;;;;;;;6.35;5.95;;;;;;;7.49;100.00;102007.25;6117761;23;20013;-70
2023/05/17 05:11:16;;;;;;;5.65;5.35;;;;;;;7.22;100.00;101947.66;6149798;23;20067;-69
2023/05/17 05:13:43;;;;;;;5.82;5.35;;;;;;;7.63;100.00;102019.19;6122099;23;20026;-70
2023/05/17 05:16:10;;;;;;;9.52;6.18;;;;;;;6.94;100.00;101909.88;6156355;23;20024;-69
2023/05/17 05:18:37;;;;;;;7.45;6.78;;;;;;;7.69;100.00;102022.53;6098466;23;20459;-69
2023/05/17 05:21:03;;;;;;;7.28;6.40;;;;;;;7.03;100.00;101940.16;6154801;23;20043;-69
2023/05/17 05:23:30;;;;;;;6.13;5.63;;;;;;;7.11;100.00;101964.38;6124779;23;20033;-69
2023/05/17 05:25:56;;;;;;;9.23;5.93;;;;;;;7.70;100.00;102031.28;6152086;23;20020;-69
2023/05/17 05:28:23;;;;;;;6.47;5.82;;;;;;;4.75;100.00;101578.09;6124391;23;20021;-69
2023/05/17 05:30:50;;;;;;;5.53;4.95;;;;;;;7.76;100.00;102046.84;6154365;23;20628;-69
2023/05/17 05:33:16;;;;;;;6.18;5.10;;;;;;;7.86;100.00;102053.59;6122231;23;20108;-70
2023/05/17 05:35:43;;;;;;;6.65;6.15;;;;;;;7.93;100.00;102049.09;6152283;23;20092;-69
2023/05/17 05:38:10;;;;;;;12.27;6.13;;;;;;;7.69;100.00;102008.63;6098369;23;20024;-69
2023/05/17 05:40:40;;;;;;;8.07;6.25;;;;;;;7.87;100.00;102026.56;6150734;23;20093;-69
2023/05/17 05:43:06;;;;;;;8.05;5.72;;;;;;;8.46;100.00;102068.13;6120596;23;20596;-69
2023/05/17 05:45:33;;;;;;;6.43;5.57;;;;;;;8.54;100.00;102067.97;6156527;23;20015;-69
2023/05/17 05:47:59;;;;;;;9.73;6.28;;;;;;;8.30;100.00;102012.63;6159384;17;20021;-72
2023/05/17 05:50:26;;;;;;;16.25;7.43;;;;;;;8.58;100.00;102017.28;6172394;23;20039;-71
2023/05/17 05:52:53;;;;;;;19.63;7.90;;;;;;;9.66;100.00;102072.25;6139789;23;20384;-71
2023/05/17 05:55:32;;;;;;;12.13;7.45;;;;;;;10.47;100.00;102071.78;6134617;23;20044;-72
2023/05/17 05:57:58;;;;;;;10.70;6.93;;;;;;;10.80;100.00;102088.28;6164751;23;20344;-72
2023/05/17 06:00:25;;;;;;;12.32;8.00;;;;;;;11.28;100.00;102066.59;6166278;23;20031;-72
2023/05/17 06:02:52;;;;;;;10.65;7.60;;;;;;;11.41;100.00;101982.94;6163983;23;20073;-72
2023/05/17 06:05:19;;;;;;;18.13;8.32;;;;;;;12.16;98.43;102019.69;6142207;23;20032;-72
2023/05/17 06:07:45;;;;;;;14.07;8.65;;;;;;;12.16;91.85;101982.00;6171139;23;20044;-72
2023/05/17 06:10:12;;;;;;;11.63;8.70;;;;;;;12.08;87.39;101937.53;6164901;23;20016;-72
2023/05/17 06:12:38;;;;;;;12.00;8.45;;;;;;;11.56;86.52;101876.38;6168346;23;20028;-72
2023/05/17 06:15:05;;;;;;;13.95;8.27;;;;;;;11.38;85.84;101914.69;6163826;23;22155;-71
2023/05/17 06:17:32;;;;;;;25.20;9.15;;;;;;;11.45;84.88;101926.72;6149622;23;20054;-71
2023/05/17 06:19:59;;;;;;;15.18;8.73;;;;;;;11.43;85.46;101936.44;6138985;23;20628;-72
2023/05/17 06:22:26;;;;;;;12.88;7.93;;;;;;;11.03;84.64;101913.34;6172157;23;20024;-72
2023/05/17 06:24:52;;;;;;;11.73;7.90;;;;;;;9.79;83.28;101683.03;6167369;23;20214;-72
2023/05/17 06:27:18;;;;;;;18.02;7.65;;;;;;;11.32;82.73;101913.13;6170108;23;20028;-72
2023/05/17 06:29:45;;;;;;;15.35;8.20;;;;;;;11.25;83.48;101921.31;6139671;23;20082;-71
2023/05/17 06:32:11;;;;;;;9.68;6.70;;;;;;;10.55;82.29;101852.78;6167358;23;20224;-72
2023/05/17 06:34:38;;;;;;;7.68;6.97;;;;;;;10.80;83.14;101891.31;6139326;23;20451;-71
2023/05/17 06:37:05;;;;;;;9.63;7.13;;;;;;;11.18;82.39;101915.41;6171600;23;20048;-71
2023/05/17 06:39:31;;;;;;;11.27;6.28;;;;;;;11.23;81.69;101884.59;6138743;23;20086;-72
2023/05/17 06:41:58;;;;;;;11.82;7.45;;;;;;;10.73;79.59;101853.91;6161569;23;20097;-71
2023/05/17 06:44:24;;;;;;;8.30;7.22;;;;;;;10.59;79.70;101845.66;6166570;23;20020;-71
2023/05/17 06:46:51;;;;;;;9.05;6.93;;;;;;;10.53;82.00;101874.75;6144650;23;20027;-71
2023/05/17 06:49:17;;;;;;;13.25;6.68;;;;;;;10.67;79.77;101837.53;6170185;23;20662;-71
2023/05/17 06:51:44;;;;;;;7.55;6.75;;;;;;;10.79;78.96;101842.34;6142444;23;20062;-71
2023/05/17 06:54:10;;;;;;;14.75;6.90;;;;;;;10.82;78.46;101791.50;6170039;23;20036;-72
2023/05/17 06:56:37;;;;;;;8.93;6.57;;;;;;;11.50;77.54;101861.66;6139350;23;20198;-72
2023/05/17 06:59:03;;;;;;;8.38;7.68;;;;;;;11.55;77.35;101843.97;6170335;23;20032;-72
2023/05/17 07:01:30;;;;;;;11.15;6.03;;;;;;;11.08;74.23;101702.06;6149196;23;20537;-72
2023/05/17 07:03:56;;;;;;;7.40;6.53;;;;;;;10.94;74.47;101657.97;6170276;23;20048;-72
2023/05/17 07:06:23;;;;;;;11.15;6.85;;;;;;;11.93;73.96;101790.84;6153405;23;20384;-71
2023/05/17 07:08:49;;;;;;;12.52;6.65;;;;;;;11.13;73.32;101689.63;6123504;23;20134;-72
2023/05/17 07:11:16;;;;;;;7.72;5.85;;;;;;;11.49;73.94;101740.84;6165974;23;20020;-72
2023/05/17 07:13:42;;;;;;;9.45;7.35;;;;;;;11.88;72.39;101748.88;6134815;23;20038;-72
2023/05/17 07:16:09;;;;;;;6.38;5.78;;;;;;;12.03;71.27;101754.44;6162857;23;20089;-72
2023/05/17 07:18:36;;;;;;;10.45;6.55;;;;;;;11.55;70.82;101688.84;6151792;23;20477;-72
2023/05/17 07:21:02;;;;;;;8.88;7.07;;;;;;;11.91;71.98;101745.31;6168287;23;20032;-72
2023/05/17 07:23:29;;;;;;;6.30;5.72;;;;;;;11.65;71.54;101691.97;6166215;23;20017;-72
2023/05/17 07:25:55;;;;;;;8.57;6.18;;;;;;;12.12;69.56;101686.50;6167850;23;20028;-72
2023/05/17 07:28:22;;;;;;;13.40;6.32;;;;;;;11.56;67.81;101506.53;6165409;23;20031;-72
2023/05/17 07:30:49;;;;;;;12.48;6.28;;;;;;;11.84;66.22;101550.03;6161309;23;20024;-71
2023/05/17 07:33:15;;;;;;;12.18;6.03;;;;;;;11.78;67.24;101609.00;6168583;23;20021;-71
2023/05/17 07:35:42;;;;;;;8.70;6.30;;;;;;;11.95;67.74;101653.06;6139340;23;20140;-71
2023/05/17 07:38:09;;;;;;;8.85;6.45;;;;;;;11.58;66.67;101601.97;6165051;23;20024;-72
2023/05/17 07:40:35;;;;;;;8.57;6.30;;;;;;;11.38;67.17;101594.94;6147633;23;20026;-71
2023/05/17 07:43:02;;;;;;;8.15;6.10;;;;;;;10.46;66.67;101455.94;6162274;23;20021;-72
2023/05/17 07:45:28;;;;;;;11.93;6.13;;;;;;;11.30;65.71;101570.72;6142786;23;20074;-72
2023/05/17 07:47:55;;;;;;;6.93;5.55;;;;;;;11.05;65.06;101473.69;6172337;23;20036;-71
2023/05/17 07:50:22;;;;;;;6.70;5.22;;;;;;;10.97;64.49;101452.13;6163470;23;20034;-71
2023/05/17 07:52:48;;;;;;;9.30;5.70;;;;;;;11.14;62.51;101404.97;6166911;23;20040;-71
2023/05/17 07:55:15;;;;;;;10.63;4.72;;;;;;;11.53;62.30;101446.22;6167559;23;20390;-72
2023/05/17 07:57:51;;;;;;;9.15;5.38;;;;;;;11.66;61.39;101430.72;6143641;23;20082;-72
2023/05/17 08:00:18;;;;;;;9.45;5.35;;;;;;;11.46;62.28;101450.03;6170075;23;20029;-72
2023/05/17 08:02:45;;;;;;;8.68;5.60;;;;;;;10.64;62.75;101329.22;6147019;23;20056;-72
2023/05/17 08:05:12;;;;;;;8.48;5.78;;;;;;;10.91;62.77;101390.22;6165149;23;20564;-73
2023/05/17 08:07:38;;;;;;;5.18;4.85;;;;;;;10.76;62.37;101298.97;6153740;23;20028;-71
2023/05/17 08:10:05;;;;;;;5.88;5.18;;;;;;;11.66;62.11;101449.13;6164949;23;20365;-73
2023/05/17 08:12:32;;;;;;;10.50;6.15;;;;;;;11.82;61.57;101459.81;6174220;23;20038;-72
2023/05/17 08:14:58;;;;;;;5.78;5.38;;;;;;;11.48;60.41;101306.25;6142567;23;20028;-73
2023/05/17 08:17:25;;;;;;;5.70;5.32;;;;;;;12.18;61.04;101454.69;6143327;23;20027;-72
2023/05/17 08:19:51;;;;;;;10.23;5.45;;;;;;;11.90;61.22;101430.59;6171595;23;20415;-71
2023/05/17 08:22:19;;;;;;;6.35;5.30;;;;;;;11.90;61.73;101415.66;6171654;23;20032;-71
2023/05/17 08:24:46;;;;;;;6.05;5.75;;;;;;;12.01;62.11;101474.78;6136324;23;20025;-71
2023/05/17 08:27:12;;;;;;;5.15;4.75;;;;;;;11.46;60.87;101344.88;6172371;23;20021;-71
2023/05/17 08:29:39;;;;;;;6.55;4.85;;;;;;;10.61;61.07;101213.88;6168035;23;20131;-71
2023/05/17 08:32:05;;;;;;;8.18;4.85;;;;;;;11.61;60.45;101360.91;6168859;23;20509;-72
2023/05/17 08:34:32;;;;;;;6.47;4.57;;;;;;;11.43;59.10;101273.22;6142431;23;20017;-71
2023/05/17 08:36:58;;;;;;;6.65;6.15;;;;;;;12.14;58.11;101329.44;6168211;23;20333;-71
2023/05/17 08:39:25;;;;;;;4.90;4.63;;;;;;;11.98;57.60;101258.31;6169254;23;20618;-72
2023/05/17 08:41:52;;;;;;;9.15;5.07;;;;;;;11.92;58.06;101300.69;6170871;23;20087;-72
2023/05/17 08:44:19;;;;;;;6.90;5.45;;;;;;;11.57;57.35;101221.72;6142193;23;20046;-72
2023/05/17 08:46:52;;;;;;;6.10;4.97;;;;;;;11.70;57.83;101271.91;6165593;23;20038;-72
2023/05/17 08:49:21;;;;;;;7.03;6.50;;;;;;;11.63;58.50;101327.50;6143057;23;20538;-73
2023/05/17 08:51:49;;;;;;;14.77;5.55;;;;;;;11.13;57.69;101158.13;6169212;23;20560;-72
2023/05/17 08:54:16;;;;;;;15.02;5.45;;;;;;;11.29;58.06;101260.72;6121038;23;20035;-72
2023/05/17 08:56:42;;;;;;;6.05;5.55;;;;;;;12.14;58.83;101386.50;6142733;23;20049;-73
2023/05/17 08:59:10;;;;;;;5.47;5.07;;;;;;;12.27;58.31;101370.97;6143283;23;20467;-73
2023/05/17 09:01:42;;;;;;;9.00;5.45;;;;;;;12.41;57.67;101338.69;6145613;23;20029;-73
2023/05/17 09:04:10;;;;;;;5.68;5.15;;;;;;;12.70;55.91;101292.47;6141948;23;20100;-73
2023/05/17 09:06:36;;;;;;;8.10;5.68;;;;;;;13.08;55.41;101311.53;6171705;23;20032;-72
2023/05/17 09:09:06;;;;;;;17.90;6.28;;;;;;;11.67;55.06;101087.19;6171738;23;20029;-73
2023/05/17 09:11:32;;;;;;;11.55;6.00;;;;;;;12.68;54.16;101208.28;6145811;23;20036;-73
2023/05/17 09:14:04;;;;;;;14.82;5.53;;;;;;;12.41;54.05;101151.81;6170455;23;20032;-72
2023/05/17 09:16:32;;;;;;;8.48;5.22;;;;;;;12.69;54.15;101238.97;6145860;23;20629;-73
2023/05/17 09:18:59;;;;;;;6.57;6.13;;;;;;;12.63;53.23;101191.00;6169303;23;20051;-75
2023/05/17 09:21:28;;;;;;;7.90;6.22;;;;;;;12.82;53.69;101209.34;6170655;23;20024;-74
2023/05/17 09:23:55;;;;;;;8.38;6.13;;;;;;;13.49;53.08;101290.06;6169523;23;20032;-73
2023/05/17 09:26:24;;;;;;;9.15;5.45;;;;;;;13.76;53.60;101368.59;6142611;23;20036;-73
2023/05/17 09:28:52;;;;;;;5.70;5.30;;;;;;;13.47;52.57;101269.97;6167899;23;20099;-72
2023/05/17 09:31:18;;;;;;;11.45;6.65;;;;;;;13.40;53.97;101300.25;6145476;23;20128;-72
2023/05/17 09:33:46;;;;;;;6.53;6.05;;;;;;;13.70;54.31;101422.53;6149750;23;20041;-73
2023/05/17 09:36:22;;;;;;;5.70;5.20;;;;;;;12.72;50.60;101062.34;6167053;23;20428;-72
2023/05/17 09:38:57;;;;;;;5.78;4.90;;;;;;;13.23;51.60;101224.69;6146127;23;20021;-72
2023/05/17 09:41:29;;;;;;;6.97;6.25;;;;;;;13.87;51.54;101339.84;6169935;23;20029;-72
2023/05/17 09:44:00;;;;;;;6.87;6.30;;;;;;;13.65;51.92;101308.53;6168556;23;20078;-73
2023/05/17 09:46:31;;;;;;;6.05;5.65;;;;;;;13.70;52.09;101340.75;6141055;23;20021;-73
2023/05/17 09:49:00;;;;;;;6.18;5.65;;;;;;;13.98;49.62;101261.84;6145136;23;20048;-73
2023/05/17 09:51:43;;;;;;;6.10;5.50;;;;;;;14.38;51.08;101375.72;6148636;23;20044;-74
2023/05/17 09:54:10;;;;;;;6.07;5.63;;;;;;;14.51;49.51;101273.69;6143481;23;20619;-73
2023/05/17 09:56:37;;;;;;;9.90;6.00;;;;;;;14.16;50.34;101293.31;6145017;23;20108;-72
2023/05/17 09:59:11;;;;;;;9.30;5.45;;;;;;;14.04;49.86;101295.81;6146509;23;20036;-73
2023/05/17 10:01:40;;;;;;;5.57;5.07;;;;;;;14.66;49.76;101399.63;6149472;23;20056;-71
2023/05/17 10:04:09;;;;;;;8.30;5.50;;;;;;;14.08;49.80;101257.75;6144409;23;20048;-74
2023/05/17 10:06:40;;;;;;;6.30;5.40;;;;;;;14.32;46.94;101169.16;6168693;23;20023;-71
2023/05/17 10:09:12;;;;;;;6.00;5.53;;;;;;;13.98;48.62;101235.47;6166683;23;22735;-71
2023/05/17 10:11:41;;;;;;;6.57;5.65;;;;;;;14.72;50.15;101464.47;6168686;23;20037;-73
2023/05/17 10:14:27;;;;;;;10.02;5.95;;;;;;;14.35;51.04;101411.94;6161891;23;20073;-71
2023/05/17 10:16:55;;;;;;;18.25;16.52;;;;;;;14.29;50.18;101400.84;6094668;23;20092;-71
2023/05/17 10:19:23;;;;;;;5.50;5.13;;;;;;;14.60;50.58;101436.97;6101610;23;20032;-74
2023/05/17 10:21:51;;;;;;;10.68;5.85;;;;;;;14.76;49.50;101419.28;6167070;23;20017;-71
2023/05/17 10:24:18;;;;;;;5.43;4.97;;;;;;;13.86;49.39;101271.31;6134545;23;20126;-74
2023/05/17 10:26:45;;;;;;;6.22;5.72;;;;;;;13.92;50.23;101343.06;6166894;23;20051;-71
2023/05/17 10:29:12;;;;;;;6.38;5.88;;;;;;;14.54;47.74;101339.56;6163455;23;20059;-72
2023/05/17 10:31:40;;;;;;;6.95;5.32;;;;;;;14.75;49.16;101422.88;6139254;23;20709;-72
2023/05/17 10:34:08;;;;;;;5.95;5.40;;;;;;;14.35;48.65;101321.28;6167465;23;20091;-72
2023/05/17 10:36:36;;;;;;;9.13;5.93;;;;;;;15.21;48.60;101423.72;6162909;23;20076;-72
2023/05/17 10:39:06;;;;;;;5.88;5.35;;;;;;;14.24;48.24;101278.81;6160084;23;20714;-72
2023/05/17 10:41:34;;;;;;;5.45;5.13;;;;;;;15.09;48.90;101426.16;6140393;23;20036;-74
2023/05/17 10:44:04;;;;;;;6.65;5.75;;;;;;;15.18;48.02;101429.22;6161890;23;20089;-72
2023/05/17 10:46:31;;;;;;;7.10;5.93;;;;;;;14.80;47.19;101303.69;6169876;23;20017;-73
2023/05/17 10:48:59;;;;;;;6.35;5.72;;;;;;;14.74;46.89;101291.69;6138986;23;20016;-72
2023/05/17 10:51:31;;;;;;;5.63;5.32;;;;;;;15.19;47.22;101400.00;6163959;23;20032;-74
2023/05/17 10:54:17;;;;;;;6.55;5.53;;;;;;;15.20;46.20;101348.00;6138125;23;20021;-74
2023/05/17 10:56:49;;;;;;;7.32;5.85;;;;;;;14.86;46.88;101340.31;6167634;23;20028;-72
2023/05/17 10:59:20;;;;;;;7.60;5.63;;;;;;;14.34;46.59;101264.13;6171145;23;20017;-74
2023/05/17 11:01:56;;;;;;;5.63;5.32;;;;;;;14.78;47.56;101405.13;6169601;23;20048;-74
2023/05/17 11:04:25;;;;;;;9.57;5.43;;;;;;;15.60;47.72;101504.28;6140248;23;20107;-74
2023/05/17 11:07:20;;;;;;;6.00;5.60;;;;;;;14.79;47.07;101360.09;6167936;23;20020;-73
2023/05/17 11:10:05;;;;;;;6.78;5.85;;;;;;;15.15;44.39;101330.63;6146871;23;20032;-71
2023/05/17 11:12:36;;;;;;;5.72;5.32;;;;;;;15.15;44.69;101308.59;6168468;23;20032;-70
2023/05/17 11:15:10;;;;;;;5.72;5.43;;;;;;;15.13;45.48;101358.97;6133490;23;20072;-73
2023/05/17 11:17:43;;;;;;;5.88;5.47;;;;;;;15.12;47.21;101472.72;6168952;23;20033;-73
2023/05/17 11:20:24;;;;;;;6.88;5.60;;;;;;;14.69;45.00;101332.53;6173669;23;20016;-71
2023/05/17 11:23:05;;;;;;;6.17;5.57;;;;;;;14.61;45.21;101343.53;6144290;23;20036;-71
2023/05/17 11:25:37;;;;;;;13.32;5.38;;;;;;;14.91;46.85;101462.47;6180528;23;20025;-69
2023/05/17 11:28:18;;;;;;;5.63;5.22;;;;;;;14.62;45.39;101373.47;6147655;23;20145;-72
2023/05/17 11:30:54;;;;;;;6.00;5.60;;;;;;;14.34;45.43;101340.72;6179025;23;20083;-73